Time;durP1;ratioP1;P1;durP2;ratioP2;P2;SDS_P1;SDS_P2;PMS_P1;PMS_P2;Temp;Humidity;BMP_temperature;BMP_pressure;BME280_temperature;BME280_humidity;BME280_pressure;Samples;Min_cycle;Max_cycle;Signal;HPM_P1;HPM_P2
2022/01/31 00:01:50;;;;;;;17.42;7.03;;;4.60;99.90;;;;;;5090119;28;20100;-60
2022/01/31 00:04:16;;;;;;;20.00;6.72;;;4.50;99.90;;;;;;5090521;28;20503;-60
2022/01/31 00:06:47;;;;;;;11.65;6.30;;;4.50;99.90;;;;;;5086442;28;20184;-60
2022/01/31 00:09:15;;;;;;;19.67;6.70;;;4.50;99.90;;;;;;5086872;28;20492;-60
2022/01/31 00:11:44;;;;;;;19.33;6.35;;;4.50;99.90;;;;;;5083281;28;20516;-60
2022/01/31 00:14:21;;;;;;;25.63;7.90;;;4.50;99.90;;;;;;5079895;28;20097;-60
2022/01/31 00:16:47;;;;;;;18.05;7.25;;;4.40;99.90;;;;;;5085484;28;20131;-60
2022/01/31 00:19:13;;;;;;;20.35;8.13;;;4.40;99.90;;;;;;5084616;28;20139;-60
2022/01/31 00:21:38;;;;;;;20.13;7.97;;;4.40;99.90;;;;;;5077265;28;20039;-60
2022/01/31 00:24:05;;;;;;;26.10;8.85;;;4.40;99.90;;;;;;5079189;28;20051;-60
2022/01/31 00:26:30;;;;;;;17.73;8.65;;;4.40;99.90;;;;;;5083406;28;20024;-60
2022/01/31 00:28:56;;;;;;;23.40;9.40;;;4.40;99.90;;;;;;5079377;28;20043;-60
2022/01/31 00:31:22;;;;;;;20.52;8.82;;;4.40;99.90;;;;;;5081908;28;20048;-60
2022/01/31 00:33:48;;;;;;;21.95;8.88;;;4.40;99.90;;;;;;5080667;28;20047;-60
2022/01/31 00:36:13;;;;;;;16.08;7.88;;;4.40;99.90;;;;;;5078478;28;20032;-60
2022/01/31 00:38:39;;;;;;;16.70;8.48;;;4.40;99.90;;;;;;5078826;28;20409;-60
2022/01/31 00:41:05;;;;;;;30.45;9.13;;;4.40;99.90;;;;;;5085893;28;20073;-60
2022/01/31 00:43:34;;;;;;;17.40;8.25;;;4.40;99.90;;;;;;5087636;28;20493;-60
2022/01/31 00:46:02;;;;;;;19.40;8.15;;;4.40;99.90;;;;;;5090530;28;20126;-60
2022/01/31 00:48:33;;;;;;;13.77;6.78;;;4.40;99.90;;;;;;5086290;28;20493;-60
2022/01/31 00:50:59;;;;;;;22.00;8.63;;;4.40;99.90;;;;;;5089912;28;20434;-61
2022/01/31 00:53:25;;;;;;;13.82;7.65;;;4.40;99.90;;;;;;5085153;28;20040;-60
2022/01/31 00:55:50;;;;;;;15.73;7.40;;;4.40;99.90;;;;;;5086989;28;20036;-60
2022/01/31 00:58:16;;;;;;;16.00;7.78;;;4.30;99.90;;;;;;5085370;28;20540;-60
2022/01/31 01:00:42;;;;;;;32.97;9.27;;;4.40;99.90;;;;;;5082933;28;20062;-61
2022/01/31 01:03:08;;;;;;;17.65;8.55;;;4.30;99.90;;;;;;5075397;28;20039;-61
2022/01/31 01:05:34;;;;;;;22.77;8.73;;;4.30;99.90;;;;;;5078076;28;20039;-60
2022/01/31 01:07:59;;;;;;;27.73;9.77;;;4.30;99.90;;;;;;5076180;28;20646;-61
2022/01/31 01:10:25;;;;;;;16.70;9.13;;;4.30;99.90;;;;;;5076283;28;20642;-60
2022/01/31 01:12:51;;;;;;;22.10;9.63;;;4.30;99.90;;;;;;5078286;28;20466;-61
2022/01/31 01:15:17;;;;;;;18.08;8.70;;;4.30;99.90;;;;;;5080620;28;20028;-61
2022/01/31 01:17:45;;;;;;;22.23;10.07;;;4.30;99.90;;;;;;5073594;28;20072;-61
2022/01/31 01:20:11;;;;;;;17.27;9.77;;;4.30;99.90;;;;;;5073451;28;20051;-61
2022/01/31 01:22:38;;;;;;;19.63;10.25;;;4.30;99.90;;;;;;5078658;28;20036;-61
2022/01/31 01:25:06;;;;;;;22.85;11.30;;;4.30;99.90;;;;;;5077726;28;20564;-60
2022/01/31 01:27:32;;;;;;;18.65;9.63;;;4.30;99.90;;;;;;5082059;28;20044;-60
2022/01/31 01:29:58;;;;;;;15.52;8.93;;;4.30;99.90;;;;;;5082997;28;20036;-60
2022/01/31 01:32:28;;;;;;;15.57;8.90;;;4.30;99.90;;;;;;5076791;28;20523;-60
2022/01/31 01:34:59;;;;;;;14.40;7.68;;;4.30;99.90;;;;;;5076081;28;20044;-60
2022/01/31 01:37:24;;;;;;;15.60;8.50;;;4.30;99.90;;;;;;5078362;28;20209;-60
2022/01/31 01:39:50;;;;;;;10.63;6.03;;;4.30;99.90;;;;;;5080803;28;20415;-60
2022/01/31 01:42:16;;;;;;;10.18;5.05;;;4.20;99.90;;;;;;5088535;28;20077;-61
2022/01/31 01:44:47;;;;;;;7.28;4.95;;;4.20;99.90;;;;;;5083708;28;20119;-60
2022/01/31 01:47:18;;;;;;;6.90;5.32;;;4.20;99.90;;;;;;5078228;28;20036;-61
2022/01/31 01:49:45;;;;;;;9.85;4.55;;;4.20;99.90;;;;;;5085587;28;20362;-61
2022/01/31 01:52:11;;;;;;;6.78;4.32;;;4.20;99.90;;;;;;5082810;28;20127;-61
2022/01/31 01:54:37;;;;;;;6.68;4.65;;;4.20;99.90;;;;;;5080595;28;20095;-61
2022/01/31 01:57:04;;;;;;;6.43;4.30;;;4.20;99.90;;;;;;5083873;28;20416;-61
2022/01/31 01:59:33;;;;;;;7.10;2.53;;;4.10;99.90;;;;;;5080399;28;20052;-61
2022/01/31 02:02:01;;;;;;;6.13;3.45;;;4.10;99.90;;;;;;5083655;28;20076;-61
2022/01/31 02:04:30;;;;;;;6.32;4.15;;;4.00;99.90;;;;;;5095575;28;20042;-60
2022/01/31 02:06:56;;;;;;;14.43;6.20;;;4.10;99.90;;;;;;5082431;28;20041;-61
2022/01/31 02:09:23;;;;;;;14.32;5.60;;;4.00;99.90;;;;;;5079725;28;20040;-61
2022/01/31 02:11:49;;;;;;;7.43;5.13;;;4.10;99.90;;;;;;5082384;28;20029;-61
2022/01/31 02:14:15;;;;;;;13.65;6.43;;;4.10;99.90;;;;;;5098301;27;20066;-60
2022/01/31 02:16:41;;;;;;;10.35;5.40;;;4.10;99.90;;;;;;5099366;27;20130;-60
2022/01/31 02:19:08;;;;;;;8.38;5.95;;;4.10;99.90;;;;;;5082648;28;20047;-61
2022/01/31 02:21:34;;;;;;;11.27;6.43;;;4.20;99.90;;;;;;5079369;28;20029;-61
2022/01/31 02:24:00;;;;;;;11.30;6.53;;;4.20;99.90;;;;;;5084487;28;20086;-61
2022/01/31 02:26:26;;;;;;;15.50;8.25;;;4.20;99.90;;;;;;5081901;28;20074;-60
2022/01/31 02:28:52;;;;;;;13.82;8.48;;;4.20;99.90;;;;;;5105106;27;20048;-61
2022/01/31 02:31:18;;;;;;;11.50;6.22;;;4.20;99.90;;;;;;5091473;28;20390;-61
2022/01/31 02:33:43;;;;;;;13.55;6.55;;;4.20;99.90;;;;;;5089335;28;20127;-61
2022/01/31 02:36:09;;;;;;;12.85;6.13;;;4.30;99.90;;;;;;5098245;28;20449;-61
2022/01/31 02:38:35;;;;;;;14.23;6.65;;;4.30;99.90;;;;;;5100997;27;20263;-61
2022/01/31 02:41:01;;;;;;;14.25;6.60;;;4.40;99.90;;;;;;5092879;28;20464;-61
2022/01/31 02:43:30;;;;;;;9.20;5.88;;;4.40;99.90;;;;;;5091587;28;20035;-61
2022/01/31 02:45:57;;;;;;;11.10;5.10;;;4.50;99.90;;;;;;5089521;28;20067;-62
2022/01/31 02:48:26;;;;;;;13.15;5.68;;;4.50;99.90;;;;;;5089490;28;20509;-61
2022/01/31 02:50:52;;;;;;;18.83;6.22;;;4.60;99.90;;;;;;5086987;28;20485;-61
2022/01/31 02:55:47;;;;;;;14.20;5.10;;;4.70;99.90;;;;;;5092186;28;20135;-61
2022/01/31 02:58:14;;;;;;;15.27;5.55;;;4.70;99.90;;;;;;5079611;28;20070;-61
2022/01/31 03:00:40;;;;;;;16.95;5.03;;;4.80;99.90;;;;;;5086130;28;20473;-61
2022/01/31 03:03:07;;;;;;;17.85;6.43;;;4.80;99.90;;;;;;5088392;28;20119;-61
2022/01/31 03:05:33;;;;;;;16.77;5.60;;;4.90;99.90;;;;;;5084816;28;20415;-61
2022/01/31 03:07:59;;;;;;;23.15;7.40;;;5.00;99.90;;;;;;5079793;28;20066;-61
2022/01/31 03:10:25;;;;;;;17.23;5.70;;;5.10;99.90;;;;;;5095745;28;20135;-61
2022/01/31 03:12:51;;;;;;;22.00;7.97;;;5.20;99.90;;;;;;5089407;28;20079;-61
2022/01/31 03:15:17;;;;;;;30.77;7.43;;;5.30;99.90;;;;;;5085260;28;20044;-61
2022/01/31 03:17:47;;;;;;;18.85;7.57;;;5.40;99.90;;;;;;5082989;28;20039;-61
2022/01/31 03:20:14;;;;;;;20.50;5.78;;;5.40;99.90;;;;;;5089593;28;20217;-61
2022/01/31 03:22:40;;;;;;;18.92;5.90;;;5.50;99.90;;;;;;5080819;28;20558;-61
2022/01/31 03:25:06;;;;;;;22.63;7.65;;;5.60;99.90;;;;;;5097420;28;20046;-61
2022/01/31 03:27:32;;;;;;;16.45;4.90;;;5.60;99.90;;;;;;5066559;28;20079;-61
2022/01/31 03:29:57;;;;;;;20.60;6.18;;;5.70;99.90;;;;;;5087069;28;20075;-61
2022/01/31 03:32:23;;;;;;;22.45;5.85;;;5.70;99.90;;;;;;5090276;28;20137;-61
2022/01/31 03:34:49;;;;;;;25.98;5.55;;;5.70;99.90;;;;;;5087402;28;20039;-61
2022/01/31 03:37:15;;;;;;;18.25;5.68;;;5.70;99.90;;;;;;5079366;28;20187;-61
2022/01/31 03:39:40;;;;;;;22.60;5.68;;;5.80;99.90;;;;;;5094791;28;20032;-61
2022/01/31 03:42:06;;;;;;;19.48;5.57;;;5.80;99.90;;;;;;5081675;28;20045;-61
2022/01/31 03:44:32;;;;;;;10.90;4.78;;;5.80;99.90;;;;;;5087720;28;20064;-61
2022/01/31 03:46:58;;;;;;;18.38;5.05;;;5.80;99.90;;;;;;5079337;28;20055;-61
2022/01/31 03:49:24;;;;;;;22.40;6.55;;;5.80;99.90;;;;;;5082462;28;20043;-61
2022/01/31 03:51:50;;;;;;;10.40;5.28;;;5.80;99.90;;;;;;5084656;28;20481;-61
2022/01/31 03:54:16;;;;;;;16.75;6.03;;;5.80;99.90;;;;;;5089872;28;20043;-61
2022/01/31 03:56:42;;;;;;;13.60;4.70;;;5.80;99.90;;;;;;5088459;28;20028;-61
2022/01/31 03:59:08;;;;;;;14.82;5.05;;;5.80;99.90;;;;;;5087227;28;20054;-61
2022/01/31 04:01:35;;;;;;;17.23;5.07;;;5.80;99.90;;;;;;5080746;28;20052;-61
2022/01/31 04:04:00;;;;;;;21.08;5.88;;;5.80;99.90;;;;;;5078686;28;20036;-61
2022/01/31 04:06:26;;;;;;;15.38;5.28;;;5.90;99.90;;;;;;5092230;28;20044;-61
2022/01/31 04:08:52;;;;;;;21.80;6.60;;;5.90;99.90;;;;;;5081918;28;20377;-61
2022/01/31 04:11:18;;;;;;;25.85;6.50;;;5.90;99.90;;;;;;5087174;28;20039;-61
2022/01/31 04:13:44;;;;;;;15.95;5.38;;;5.80;99.90;;;;;;5091811;28;20621;-61
2022/01/31 04:16:11;;;;;;;21.23;5.70;;;5.90;99.90;;;;;;5085641;28;20056;-61
2022/01/31 04:18:37;;;;;;;15.23;5.15;;;5.90;99.90;;;;;;5082320;28;20485;-61
2022/01/31 04:21:03;;;;;;;10.25;3.75;;;5.90;99.90;;;;;;5090450;28;20039;-61
2022/01/31 04:23:29;;;;;;;11.85;4.63;;;5.80;99.90;;;;;;5081718;28;20035;-61
2022/01/31 04:26:03;;;;;;;13.48;4.57;;;5.80;99.90;;;;;;5090599;28;20169;-61
2022/01/31 04:28:39;;;;;;;11.10;3.80;;;5.80;99.90;;;;;;5087557;28;20409;-61
2022/01/31 04:33:47;;;;;;;19.63;5.38;;;5.70;99.90;;;;;;5079879;28;20051;-61
2022/01/31 04:36:14;;;;;;;13.93;5.10;;;5.70;99.90;;;;;;5090397;28;20044;-61
2022/01/31 04:38:41;;;;;;;13.68;4.75;;;5.70;99.90;;;;;;5079343;28;20066;-61
2022/01/31 04:41:07;;;;;;;11.55;5.05;;;5.70;99.90;;;;;;5099331;28;20119;-61
2022/01/31 04:43:33;;;;;;;10.35;2.95;;;5.70;99.90;;;;;;5089014;28;20165;-61
2022/01/31 04:46:01;;;;;;;5.95;2.22;;;5.60;99.90;;;;;;5084250;28;20497;-61
2022/01/31 04:48:27;;;;;;;9.43;2.22;;;5.60;99.90;;;;;;5086507;28;20119;-61
2022/01/31 04:50:54;;;;;;;5.93;1.58;;;5.50;99.90;;;;;;5087886;28;20589;-61
2022/01/31 04:53:20;;;;;;;7.22;2.30;;;5.40;99.90;;;;;;5078960;28;20541;-61
2022/01/31 04:55:46;;;;;;;6.10;1.90;;;5.40;99.90;;;;;;5085917;28;20133;-61
2022/01/31 04:58:12;;;;;;;5.07;2.40;;;5.40;99.90;;;;;;5084899;28;20405;-61
2022/01/31 05:00:39;;;;;;;8.68;3.08;;;5.40;99.90;;;;;;5063280;28;20048;-61
2022/01/31 05:03:11;;;;;;;15.45;3.33;;;5.30;99.90;;;;;;5066638;28;20032;-61
2022/01/31 05:06:05;;;;;;;11.27;4.22;;;5.30;99.90;;;;;;5070555;28;20503;-61
2022/01/31 05:08:33;;;;;;;14.57;3.50;;;5.30;99.90;;;;;;5061939;28;20056;-61
2022/01/31 05:10:59;;;;;;;18.98;3.85;;;5.30;99.90;;;;;;5067903;28;20052;-61
2022/01/31 05:13:25;;;;;;;13.57;4.63;;;5.40;99.90;;;;;;5064573;28;20093;-61
2022/01/31 05:15:53;;;;;;;9.55;3.53;;;5.30;99.90;;;;;;5067973;28;20615;-61
2022/01/31 05:18:20;;;;;;;11.70;3.85;;;5.40;99.90;;;;;;5071987;28;20387;-61
2022/01/31 05:20:46;;;;;;;14.90;3.60;;;5.30;99.90;;;;;;5069798;28;20040;-61
2022/01/31 05:23:12;;;;;;;7.72;3.08;;;5.30;99.90;;;;;;5066931;28;20032;-61
2022/01/31 05:25:38;;;;;;;11.63;3.67;;;5.40;99.90;;;;;;5073552;28;20512;-61
2022/01/31 05:28:05;;;;;;;9.23;3.25;;;5.40;99.90;;;;;;5065488;28;20032;-62
2022/01/31 05:30:31;;;;;;;12.55;3.20;;;5.40;99.90;;;;;;5064844;28;20045;-61
2022/01/31 05:32:56;;;;;;;11.27;3.42;;;5.40;99.90;;;;;;5073950;28;20101;-61
2022/01/31 05:35:22;;;;;;;15.77;3.38;;;5.40;99.90;;;;;;5065684;28;20294;-61
2022/01/31 05:37:48;;;;;;;12.23;3.25;;;5.40;99.90;;;;;;5066727;28;20033;-61
2022/01/31 05:40:14;;;;;;;8.85;3.10;;;5.40;99.90;;;;;;5052723;28;20151;-61
2022/01/31 05:42:40;;;;;;;13.70;4.03;;;5.40;99.90;;;;;;5063050;28;20036;-61
2022/01/31 05:45:07;;;;;;;16.27;3.85;;;5.40;99.90;;;;;;5068024;28;20520;-61
2022/01/31 05:47:36;;;;;;;10.40;4.38;;;5.40;99.90;;;;;;5068031;28;20041;-61
2022/01/31 05:50:04;;;;;;;10.63;3.78;;;5.40;99.90;;;;;;5062518;28;20033;-61
2022/01/31 05:52:31;;;;;;;11.73;3.33;;;5.40;99.90;;;;;;5060345;28;20099;-61
2022/01/31 05:54:57;;;;;;;9.23;3.40;;;5.40;99.90;;;;;;5065344;28;20035;-61
2022/01/31 05:57:23;;;;;;;6.00;3.08;;;5.40;99.90;;;;;;5057432;28;20078;-61
2022/01/31 05:59:50;;;;;;;11.40;4.07;;;5.40;99.90;;;;;;5077283;28;20109;-62
2022/01/31 06:02:17;;;;;;;10.40;3.72;;;5.40;99.90;;;;;;5085403;28;20047;-61
2022/01/31 06:04:43;;;;;;;11.95;3.75;;;5.40;99.90;;;;;;5090505;28;20028;-61
2022/01/31 06:07:09;;;;;;;9.07;2.80;;;5.40;99.90;;;;;;5085423;28;20104;-61
2022/01/31 06:09:36;;;;;;;19.90;3.38;;;5.50;99.90;;;;;;5082665;28;20040;-61
2022/01/31 06:12:03;;;;;;;8.90;2.40;;;5.40;99.90;;;;;;5080305;28;20587;-61
2022/01/31 06:14:31;;;;;;;12.38;3.50;;;5.50;99.90;;;;;;5090685;28;20071;-61
2022/01/31 06:16:57;;;;;;;8.50;2.47;;;5.50;99.90;;;;;;5084444;28;20032;-61
2022/01/31 06:19:23;;;;;;;14.35;3.40;;;5.50;99.90;;;;;;5091618;28;20048;-62
2022/01/31 06:21:49;;;;;;;13.75;3.75;;;5.50;99.90;;;;;;5085489;28;20515;-61
2022/01/31 06:24:15;;;;;;;13.15;3.58;;;5.50;99.90;;;;;;5086915;28;20115;-61
2022/01/31 06:26:42;;;;;;;14.07;3.88;;;5.50;99.90;;;;;;5081465;28;20036;-61
2022/01/31 06:29:08;;;;;;;15.07;3.50;;;5.50;99.90;;;;;;5086113;28;20048;-61
2022/01/31 06:31:34;;;;;;;5.95;2.90;;;5.50;99.90;;;;;;5083622;28;20077;-61
2022/01/31 06:34:01;;;;;;;8.27;2.80;;;5.50;99.90;;;;;;5089857;28;20040;-62
2022/01/31 06:36:28;;;;;;;9.23;2.95;;;5.50;99.90;;;;;;5087601;28;20044;-62
2022/01/31 06:38:54;;;;;;;10.02;2.92;;;5.50;99.90;;;;;;5084074;28;20504;-61
2022/01/31 06:41:20;;;;;;;11.05;3.25;;;5.40;99.90;;;;;;5087251;28;20480;-61
2022/01/31 06:43:46;;;;;;;8.35;4.15;;;5.40;99.90;;;;;;5083050;28;20292;-61
2022/01/31 06:46:13;;;;;;;13.73;3.70;;;5.40;99.90;;;;;;5081095;28;20481;-61
2022/01/31 06:48:40;;;;;;;10.90;3.25;;;5.40;99.90;;;;;;5087008;28;20126;-61
2022/01/31 06:51:06;;;;;;;13.98;3.72;;;5.40;99.90;;;;;;5079387;28;20040;-61
2022/01/31 06:53:33;;;;;;;9.23;3.70;;;5.40;99.90;;;;;;5089503;28;20408;-61
2022/01/31 06:55:59;;;;;;;15.55;3.92;;;5.40;99.90;;;;;;5086383;28;20048;-61
2022/01/31 06:58:25;;;;;;;10.85;4.00;;;5.40;99.90;;;;;;5085792;28;20102;-61
2022/01/31 07:00:53;;;;;;;13.90;4.45;;;5.40;99.90;;;;;;5090638;28;20048;-61
2022/01/31 07:03:19;;;;;;;10.27;3.80;;;5.40;99.90;;;;;;5084284;28;20043;-61
2022/01/31 07:05:45;;;;;;;17.63;4.65;;;5.50;99.90;;;;;;5086073;28;20269;-61
2022/01/31 07:08:13;;;;;;;10.40;3.40;;;5.50;99.90;;;;;;5089638;28;20098;-61
2022/01/31 07:10:39;;;;;;;18.83;4.57;;;5.50;99.90;;;;;;5084572;28;20558;-61
2022/01/31 07:13:34;;;;;;;24.00;5.10;;;5.50;99.90;;;;;;5090985;28;20108;-61
2022/01/31 07:15:52;;;;;;;14.30;5.25;;;5.50;99.90;;;;;;5084212;28;20194;-61
2022/01/31 07:18:18;;;;;;;20.17;6.45;;;5.60;99.90;;;;;;5085265;28;20400;-61
2022/01/31 07:20:50;;;;;;;22.38;5.75;;;5.60;99.90;;;;;;5085685;28;20041;-61
2022/01/31 07:23:23;;;;;;;19.15;6.47;;;5.60;99.90;;;;;;5086933;28;20440;-61
2022/01/31 07:25:48;;;;;;;19.23;7.47;;;5.70;99.90;;;;;;5085634;28;20223;-61
2022/01/31 07:28:16;;;;;;;25.02;8.13;;;5.70;99.90;;;;;;5089848;28;20055;-61
2022/01/31 07:30:46;;;;;;;26.27;7.03;;;5.70;99.90;;;;;;5085259;28;20045;-61
2022/01/31 07:33:12;;;;;;;15.57;5.75;;;5.70;99.90;;;;;;5085293;28;20048;-61
2022/01/31 07:35:39;;;;;;;15.18;6.22;;;5.80;99.90;;;;;;5086589;28;20059;-61
2022/01/31 07:38:05;;;;;;;18.95;6.00;;;5.80;99.90;;;;;;5086508;28;20027;-61
2022/01/31 07:40:31;;;;;;;22.45;7.03;;;5.80;99.90;;;;;;5084773;28;20039;-60
2022/01/31 07:42:57;;;;;;;27.92;6.50;;;5.80;99.90;;;;;;5082149;28;20064;-60
2022/01/31 07:45:23;;;;;;;17.50;5.95;;;5.90;99.90;;;;;;5090135;28;20623;-60
2022/01/31 07:47:48;;;;;;;18.30;6.03;;;5.90;99.90;;;;;;5081818;28;20030;-60
2022/01/31 07:50:14;;;;;;;18.73;6.72;;;5.90;99.90;;;;;;5089823;28;20036;-61
2022/01/31 07:52:41;;;;;;;19.92;6.90;;;6.00;99.90;;;;;;5084370;28;20043;-61
2022/01/31 07:55:08;;;;;;;19.98;5.32;;;6.00;99.90;;;;;;5076332;28;20040;-61
2022/01/31 07:57:34;;;;;;;21.58;5.40;;;6.00;99.90;;;;;;5087300;28;20028;-60
2022/01/31 08:00:03;;;;;;;14.65;4.30;;;6.00;99.90;;;;;;5083334;28;20079;-61
2022/01/31 08:02:29;;;;;;;16.08;4.25;;;6.00;99.90;;;;;;5083293;28;20036;-61
2022/01/31 08:04:55;;;;;;;16.00;4.03;;;6.00;99.90;;;;;;5089781;28;20043;-61
2022/01/31 08:07:24;;;;;;;11.43;3.63;;;6.00;99.90;;;;;;5081488;28;20059;-61
2022/01/31 08:09:49;;;;;;;13.88;3.60;;;6.00;99.90;;;;;;5081449;28;20554;-61
2022/01/31 08:12:15;;;;;;;11.70;3.78;;;6.00;99.90;;;;;;5088988;28;20032;-61
2022/01/31 08:14:43;;;;;;;15.30;2.88;;;6.00;99.90;;;;;;5083532;28;20504;-61
2022/01/31 08:17:09;;;;;;;12.63;3.10;;;6.00;99.90;;;;;;5084735;28;20029;-61
2022/01/31 08:19:34;;;;;;;12.70;2.50;;;6.00;99.90;;;;;;5079878;28;20482;-60
2022/01/31 08:22:00;;;;;;;7.15;2.20;;;6.00;99.90;;;;;;5082405;28;20134;-60
2022/01/31 08:24:26;;;;;;;12.13;3.60;;;6.00;99.90;;;;;;5084750;28;20199;-61
2022/01/31 08:26:52;;;;;;;10.48;3.30;;;6.00;99.90;;;;;;5086715;28;20042;-61
2022/01/31 08:29:25;;;;;;;8.48;2.85;;;6.00;99.90;;;;;;5081294;28;20032;-60
2022/01/31 08:31:54;;;;;;;12.80;3.13;;;6.10;99.90;;;;;;5083650;28;20385;-61
2022/01/31 08:35:47;;;;;;;9.32;3.30;;;6.10;99.90;;;;;;5086635;28;20381;-60
2022/01/31 08:37:09;;;;;;;14.30;3.72;;;6.10;99.90;;;;;;5080892;28;20292;-61
2022/01/31 08:39:35;;;;;;;8.68;3.80;;;6.10;99.90;;;;;;5084796;28;20259;-61
2022/01/31 08:42:01;;;;;;;14.93;4.75;;;6.10;99.90;;;;;;5085737;28;20424;-61
2022/01/31 08:44:27;;;;;;;12.73;3.22;;;6.10;99.90;;;;;;5081093;28;20046;-61
2022/01/31 08:46:52;;;;;;;14.15;3.45;;;6.10;99.90;;;;;;5087071;28;20028;-61
2022/01/31 08:49:18;;;;;;;18.58;3.85;;;6.20;99.90;;;;;;5085555;28;20278;-61
2022/01/31 08:51:45;;;;;;;12.23;2.67;;;6.20;99.90;;;;;;5075895;28;20272;-61
2022/01/31 08:54:12;;;;;;;7.72;3.50;;;6.20;99.90;;;;;;5086584;28;20031;-61
2022/01/31 08:56:44;;;;;;;13.48;3.10;;;6.20;99.90;;;;;;5084780;28;20036;-61
2022/01/31 08:59:18;;;;;;;10.40;2.55;;;6.30;99.90;;;;;;5081924;28;20052;-61
2022/01/31 09:01:55;;;;;;;8.38;2.95;;;6.30;99.90;;;;;;5085699;28;20097;-61
2022/01/31 09:04:32;;;;;;;12.40;3.53;;;6.30;99.90;;;;;;5087340;28;20052;-61
2022/01/31 09:06:58;;;;;;;5.97;2.45;;;6.30;99.90;;;;;;5075744;28;20459;-61
2022/01/31 09:09:24;;;;;;;8.13;3.05;;;6.30;99.90;;;;;;5086939;28;20072;-61
2022/01/31 09:11:50;;;;;;;8.45;3.00;;;6.30;99.90;;;;;;5085639;28;20125;-61
2022/01/31 09:14:16;;;;;;;16.75;5.10;;;6.30;99.90;;;;;;5085573;28;20051;-61
2022/01/31 09:16:43;;;;;;;10.85;3.05;;;6.30;99.90;;;;;;5084216;28;20048;-60
2022/01/31 09:19:09;;;;;;;10.48;3.10;;;6.30;99.90;;;;;;5082160;28;20046;-61
2022/01/31 09:21:35;;;;;;;10.77;3.45;;;6.30;99.90;;;;;;5082323;28;20032;-61
2022/01/31 09:24:02;;;;;;;8.57;3.22;;;6.30;99.90;;;;;;5088302;28;20507;-61
2022/01/31 09:26:28;;;;;;;13.20;3.40;;;6.30;99.90;;;;;;5080419;28;20077;-61
2022/01/31 09:28:54;;;;;;;8.13;3.10;;;6.40;99.90;;;;;;5083640;28;20503;-62
2022/01/31 09:31:21;;;;;;;13.90;4.07;;;6.40;99.90;;;;;;5087013;28;20036;-61
2022/01/31 09:33:49;;;;;;;10.20;2.97;;;6.40;99.90;;;;;;5083062;28;20044;-61
2022/01/31 09:36:15;;;;;;;8.30;3.00;;;6.40;99.90;;;;;;5085944;28;20506;-61
2022/01/31 09:38:42;;;;;;;8.27;2.47;;;6.40;99.90;;;;;;5083266;28;20044;-61
2022/01/31 09:41:10;;;;;;;10.40;2.55;;;6.40;99.90;;;;;;5081221;28;20039;-61
2022/01/31 09:48:56;;;;;;;10.57;3.13;;;6.50;99.90;;;;;;5082338;28;20477;-61
2022/01/31 09:51:25;;;;;;;11.38;2.97;;;6.60;99.90;;;;;;5086168;28;20082;-60
2022/01/31 09:54:00;;;;;;;19.02;3.65;;;6.60;99.90;;;;;;5087239;28;20216;-61
2022/01/31 09:56:37;;;;;;;13.80;4.32;;;6.60;99.90;;;;;;5081635;28;20046;-61
2022/01/31 09:59:05;;;;;;;14.80;4.47;;;6.60;99.90;;;;;;5082832;28;20044;-61
2022/01/31 10:01:34;;;;;;;11.40;3.20;;;6.70;99.90;;;;;;5086791;28;20048;-61
2022/01/31 10:04:14;;;;;;;16.05;3.90;;;6.70;99.90;;;;;;5085634;28;20453;-60
2022/01/31 10:06:43;;;;;;;9.57;3.60;;;6.70;99.90;;;;;;5085938;28;20020;-61
2022/01/31 10:09:25;;;;;;;17.50;4.40;;;6.80;99.90;;;;;;5072597;28;20775;-61
2022/01/31 10:11:57;;;;;;;8.65;3.28;;;6.90;99.90;;;;;;5087722;28;20454;-61
2022/01/31 10:17:24;;;;;;;16.90;4.75;;;7.00;99.90;;;;;;5089471;28;20044;-61
2022/01/31 10:19:50;;;;;;;19.38;5.30;;;7.00;99.90;;;;;;5092955;28;20039;-60
2022/01/31 10:22:18;;;;;;;14.07;3.92;;;7.00;99.90;;;;;;5082762;28;20032;-60
2022/01/31 10:24:46;;;;;;;19.20;4.68;;;7.00;99.90;;;;;;5089560;28;20032;-61
2022/01/31 10:27:20;;;;;;;12.68;4.10;;;6.90;99.90;;;;;;5089708;28;20035;-61
2022/01/31 10:29:48;;;;;;;13.63;4.10;;;7.00;99.90;;;;;;5084482;28;20044;-61
2022/01/31 10:32:30;;;;;;;14.63;3.83;;;7.00;99.90;;;;;;5090696;28;20036;-61
2022/01/31 10:34:59;;;;;;;14.10;3.33;;;7.00;99.90;;;;;;5090925;28;20044;-61
2022/01/31 10:37:29;;;;;;;14.32;3.22;;;7.10;99.90;;;;;;5083576;28;20115;-61
2022/01/31 10:57:02;;;;;;;13.38;3.95;;;7.60;99.90;;;;;;5084985;28;20584;-62
2022/01/31 10:59:37;;;;;;;8.00;3.40;;;7.70;99.90;;;;;;5085563;28;20051;-61
2022/01/31 11:02:08;;;;;;;11.57;3.17;;;7.80;99.90;;;;;;5087791;28;20052;-61
2022/01/31 11:04:38;;;;;;;10.27;3.40;;;7.90;99.90;;;;;;5087982;28;20409;-61
2022/01/31 11:07:07;;;;;;;10.43;3.38;;;8.00;99.90;;;;;;5083082;28;20072;-61
2022/01/31 11:09:33;;;;;;;9.98;3.58;;;8.00;99.90;;;;;;5091838;28;20044;-61
2022/01/31 11:12:00;;;;;;;10.00;3.65;;;8.10;99.90;;;;;;5086096;28;20036;-61
2022/01/31 11:14:26;;;;;;;10.88;2.85;;;8.20;99.90;;;;;;5086221;28;20032;-61
2022/01/31 11:16:56;;;;;;;8.75;2.58;;;8.20;99.90;;;;;;5091344;28;20032;-61
2022/01/31 11:19:30;;;;;;;7.80;2.80;;;8.30;99.90;;;;;;5082223;28;20036;-61
2022/01/31 11:22:04;;;;;;;18.55;3.72;;;8.40;99.90;;;;;;5082906;28;20036;-61
2022/01/31 11:24:36;;;;;;;9.13;2.75;;;8.40;99.90;;;;;;5089385;28;20066;-61
2022/01/31 11:27:12;;;;;;;8.80;2.80;;;8.50;99.90;;;;;;5086325;28;20047;-61
2022/01/31 11:29:42;;;;;;;12.35;3.63;;;8.50;99.90;;;;;;5083166;28;20496;-61
2022/01/31 11:32:11;;;;;;;12.50;3.22;;;8.50;99.90;;;;;;5088754;28;20409;-61
2022/01/31 11:34:45;;;;;;;6.57;2.83;;;8.50;99.90;;;;;;5083759;28;20085;-61
2022/01/31 11:37:14;;;;;;;14.05;3.63;;;8.40;99.90;;;;;;5083182;28;20433;-61
2022/01/31 11:39:41;;;;;;;12.32;3.75;;;;;;;;;;5087789;28;20043;-60
2022/01/31 11:42:08;;;;;;;10.25;3.55;;;8.50;99.90;;;;;;5082552;28;20040;-61
2022/01/31 11:44:58;;;;;;;11.27;3.60;;;8.80;99.90;;;;;;5084973;28;20028;-61
2022/01/31 11:47:27;;;;;;;7.85;2.55;;;8.90;99.90;;;;;;5086913;28;20039;-61
2022/01/31 11:50:00;;;;;;;10.50;3.38;;;9.10;99.90;;;;;;5087238;28;20425;-61
2022/01/31 11:52:30;;;;;;;;;;;9.20;99.90;;;;;;5083268;28;20100;-61
2022/01/31 11:55:01;;;;;;;7.30;2.35;;;;;;;;;;5089238;28;20068;-61
2022/01/31 11:57:39;;;;;;;9.52;2.65;;;9.30;99.90;;;;;;5083653;28;20051;-61
2022/01/31 12:00:12;;;;;;;15.10;4.45;;;9.50;99.90;;;;;;5080139;28;20083;-61
2022/01/31 12:02:45;;;;;;;9.23;4.35;;;9.40;99.90;;;;;;5091080;28;20032;-61
2022/01/31 12:05:16;;;;;;;14.77;3.88;;;9.30;99.90;;;;;;5096912;27;20040;-61
2022/01/31 12:07:44;;;;;;;12.60;4.22;;;9.20;99.90;;;;;;5081810;28;20036;-61
2022/01/31 12:10:20;;;;;;;16.40;3.55;;;9.10;99.90;;;;;;5089159;28;20044;-61
2022/01/31 12:13:00;;;;;;;16.58;4.30;;;9.00;99.90;;;;;;5089473;28;20032;-61
2022/01/31 12:23:46;;;;;;;15.52;3.38;;;8.60;99.90;;;;;;5083380;28;20044;-61
2022/01/31 12:26:44;;;;;;;11.77;3.30;;;8.60;99.90;;;;;;5078900;28;20281;-61
2022/01/31 12:29:15;;;;;;;22.63;5.45;;;8.50;99.90;;;;;;5060727;28;20517;-61
2022/01/31 12:32:15;;;;;;;17.17;4.57;;;8.50;99.90;;;;;;5087860;28;20570;-60
2022/01/31 12:34:50;;;;;;;14.57;4.20;;;8.40;99.90;;;;;;5075380;28;20083;-61
2022/01/31 12:37:42;;;;;;;12.57;4.85;;;8.40;99.90;;;;;;5075690;28;20044;-61
2022/01/31 12:40:14;;;;;;;18.30;5.40;;;8.40;99.90;;;;;;5077244;28;20108;-61
2022/01/31 12:45:39;;;;;;;11.38;5.13;;;8.30;99.90;;;;;;5083369;28;20067;-62
2022/01/31 12:48:31;;;;;;;21.08;6.75;;;8.30;99.90;;;;;;5080675;28;20561;-62
2022/01/31 12:50:58;;;;;;;24.40;5.90;;;8.20;99.90;;;;;;5087995;28;20083;-62
2022/01/31 12:53:29;;;;;;;18.95;8.20;;;8.20;99.90;;;;;;5086063;28;20043;-62
2022/01/31 12:56:10;;;;;;;29.02;6.65;;;8.20;99.90;;;;;;5086464;28;20055;-62
2022/01/31 12:58:40;;;;;;;28.45;7.95;;;8.20;99.90;;;;;;5088658;28;20485;-62
2022/01/31 13:01:12;;;;;;;30.23;7.15;;;8.20;99.90;;;;;;5083595;28;20051;-62
2022/01/31 13:03:40;;;;;;;29.73;7.05;;;8.20;99.90;;;;;;5082648;28;20036;-62
2022/01/31 13:06:35;;;;;;;24.35;6.82;;;8.10;99.90;;;;;;5088606;28;20086;-62
2022/01/31 13:09:27;;;;;;;31.13;7.32;;;8.10;99.90;;;;;;5085590;28;20119;-63
2022/01/31 13:12:05;;;;;;;20.50;6.50;;;8.10;99.90;;;;;;5072806;28;20040;-61
2022/01/31 13:14:45;;;;;;;23.27;6.05;;;8.10;99.90;;;;;;5086607;28;20124;-62
2022/01/31 13:17:17;;;;;;;15.68;6.10;;;8.00;99.90;;;;;;5098173;28;20485;-62
2022/01/31 13:19:52;;;;;;;22.98;7.07;;;8.10;99.90;;;;;;5082644;28;20485;-62
2022/01/31 13:22:27;;;;;;;27.58;7.07;;;8.00;99.90;;;;;;5084670;28;20423;-62
2022/01/31 13:24:59;;;;;;;20.75;7.05;;;8.00;99.90;;;;;;5087200;28;20053;-62
2022/01/31 13:27:39;;;;;;;17.90;6.05;;;8.00;99.90;;;;;;5082751;28;20032;-62
2022/01/31 13:30:09;;;;;;;20.90;7.00;;;8.00;99.90;;;;;;5085286;28;20035;-62
2022/01/31 13:32:38;;;;;;;18.50;6.55;;;8.00;99.90;;;;;;5081986;28;20036;-62
2022/01/31 13:35:13;;;;;;;22.48;6.07;;;8.00;99.90;;;;;;5082057;28;20047;-62
2022/01/31 13:37:45;;;;;;;26.55;7.00;;;7.90;99.90;;;;;;5087218;28;20502;-62
2022/01/31 13:40:15;;;;;;;15.60;6.03;;;7.90;99.90;;;;;;5093016;28;20048;-61